createdAt,value
2024-01-25T00:01:27.443Z,93.09
2024-01-25T00:03:55.188Z,93.61
2024-01-25T00:06:24.233Z,92.58
2024-01-25T00:08:51.799Z,91.96
2024-01-25T00:11:19.366Z,92.08
2024-01-25T00:13:46.894Z,92.36
2024-01-25T00:16:14.599Z,91.36
2024-01-25T00:18:42.385Z,91.41
2024-01-25T00:21:09.970Z,92.40
2024-01-25T00:23:38.821Z,90.20
2024-01-25T00:26:06.412Z,92.39
2024-01-25T00:28:34.828Z,91.29
2024-01-25T00:31:02.456Z,91.91
2024-01-25T00:33:30.187Z,94.34
2024-01-25T00:35:58.327Z,94.23
2024-01-25T00:38:27.805Z,94.38
2024-01-25T00:40:57.568Z,93.28
2024-01-25T00:43:25.259Z,95.03
2024-01-25T00:45:53.921Z,94.39
2024-01-25T00:48:22.169Z,93.28
2024-01-25T00:50:50.170Z,91.48
2024-01-25T00:53:19.151Z,93.06
2024-01-25T00:55:47.178Z,93.33
2024-01-25T00:58:16.828Z,92.93
2024-01-25T01:00:45.232Z,93.65
2024-01-25T01:03:14.032Z,94.99
2024-01-25T01:05:42.109Z,94.32
2024-01-25T01:08:11.073Z,93.90
2024-01-25T01:10:38.621Z,93.71
2024-01-25T01:13:06.289Z,93.98
2024-01-25T01:15:35.172Z,93.39
2024-01-25T01:18:02.957Z,94.40
2024-01-25T01:20:30.688Z,94.98
2024-01-25T01:22:58.273Z,95.46
2024-01-25T01:25:25.876Z,94.59
2024-01-25T01:27:53.462Z,93.47
2024-01-25T01:30:21.759Z,94.70
2024-01-25T01:32:50.726Z,93.19
2024-01-25T01:35:19.239Z,91.81
2024-01-25T01:37:46.823Z,93.07
2024-01-25T01:40:14.893Z,92.67
2024-01-25T01:42:42.504Z,93.12
2024-01-25T01:45:13.717Z,94.59
2024-01-25T01:47:41.983Z,92.92
2024-01-25T01:50:11.997Z,93.37
2024-01-25T01:52:39.951Z,92.72
2024-01-25T01:55:09.292Z,92.41
2024-01-25T01:57:38.652Z,91.31
2024-01-25T02:00:13.022Z,91.87
2024-01-25T02:02:40.644Z,93.51
2024-01-25T02:05:08.541Z,93.04
2024-01-25T02:07:39.155Z,93.81
2024-01-25T02:10:07.865Z,92.53
2024-01-25T02:12:35.482Z,95.10
2024-01-25T02:15:03.105Z,93.50
2024-01-25T02:17:30.890Z,94.50
2024-01-25T02:19:58.606Z,93.15
2024-01-25T02:22:27.673Z,93.76
2024-01-25T02:24:55.352Z,95.31
2024-01-25T02:27:22.891Z,94.68
2024-01-25T02:29:50.546Z,94.27
2024-01-25T02:32:19.085Z,95.07
2024-01-25T02:34:46.841Z,95.08
2024-01-25T02:37:15.693Z,94.67
2024-01-25T02:39:44.804Z,95.99
2024-01-25T02:42:13.254Z,96.34
2024-01-25T02:44:40.769Z,96.41
2024-01-25T02:47:08.349Z,97.13
2024-01-25T02:49:36.232Z,96.91
2024-01-25T02:52:04.154Z,96.26
2024-01-25T02:54:31.733Z,97.59
2024-01-25T02:57:00.938Z,97.49
2024-01-25T02:59:28.475Z,96.19
2024-01-25T03:01:56.246Z,95.57
2024-01-25T03:04:24.020Z,94.98
2024-01-25T03:06:51.966Z,94.74
2024-01-25T03:09:19.658Z,93.91
2024-01-25T03:11:47.213Z,96.46
2024-01-25T03:14:16.072Z,94.00
2024-01-25T03:16:44.156Z,94.92
2024-01-25T03:19:12.460Z,94.98
2024-01-25T03:21:40.227Z,94.13
2024-01-25T03:24:08.273Z,96.43
2024-01-25T03:26:35.814Z,95.56
2024-01-25T03:29:03.687Z,94.95
2024-01-25T03:31:32.581Z,95.04
2024-01-25T03:34:00.442Z,95.21
2024-01-25T03:36:28.076Z,95.90
2024-01-25T03:38:55.649Z,94.62
2024-01-25T03:41:24.381Z,94.41
2024-01-25T03:43:52.899Z,95.28
2024-01-25T03:46:20.557Z,95.29
2024-01-25T03:48:49.671Z,95.50
2024-01-25T03:51:17.401Z,95.47
2024-01-25T03:53:44.936Z,95.67
2024-01-25T03:56:13.508Z,95.42
2024-01-25T03:58:41.231Z,95.63
2024-01-25T04:01:09.133Z,96.65
2024-01-25T04:03:37.503Z,95.41
2024-01-25T04:06:07.001Z,95.11
2024-01-25T04:08:34.580Z,95.02
2024-01-25T04:11:02.121Z,95.53
2024-01-25T04:13:29.744Z,95.67
2024-01-25T04:15:57.558Z,96.20
2024-01-25T04:21:10.577Z,95.96
2024-01-25T04:23:38.162Z,95.14
2024-01-25T04:26:05.870Z,95.87
2024-01-25T04:28:33.445Z,95.99
2024-01-25T04:31:01.051Z,95.91
2024-01-25T04:33:28.732Z,95.62
2024-01-25T04:35:56.943Z,95.39
2024-01-25T04:38:25.813Z,96.41
2024-01-25T04:40:53.349Z,96.22
2024-01-25T04:43:20.917Z,96.29
2024-01-25T04:45:48.936Z,96.13
2024-01-25T04:48:16.950Z,95.68
2024-01-25T04:50:44.594Z,95.86
2024-01-25T04:53:12.499Z,95.97
2024-01-25T04:55:41.317Z,96.00
2024-01-25T04:58:08.930Z,96.32
2024-01-25T05:00:38.026Z,96.60
2024-01-25T05:03:06.417Z,96.50
2024-01-25T05:05:34.008Z,95.53
2024-01-25T05:08:01.650Z,96.24
2024-01-25T05:10:29.266Z,95.91
2024-01-25T05:12:58.168Z,96.15
2024-01-25T05:15:25.783Z,95.37
2024-01-25T05:17:53.423Z,95.50
2024-01-25T05:20:21.379Z,95.62
2024-01-25T05:22:49.136Z,95.51
2024-01-25T05:25:16.848Z,94.72
2024-01-25T05:27:44.445Z,94.42
2024-01-25T05:30:14.280Z,94.98
2024-01-25T05:32:41.882Z,94.26
2024-01-25T05:35:10.584Z,94.53
2024-01-25T05:37:38.329Z,93.43
2024-01-25T05:40:07.077Z,93.91
2024-01-25T05:42:34.731Z,93.61
2024-01-25T05:45:02.411Z,95.26
2024-01-25T05:47:31.765Z,95.42
2024-01-25T05:49:59.800Z,95.46
2024-01-25T05:52:27.818Z,96.67
2024-01-25T05:54:55.508Z,95.36
2024-01-25T05:57:23.072Z,95.08
2024-01-25T05:59:50.670Z,94.77
2024-01-25T06:02:18.591Z,94.73
2024-01-25T06:04:47.836Z,95.44
2024-01-25T06:07:15.697Z,94.40
2024-01-25T06:09:43.295Z,95.31
2024-01-25T06:12:11.396Z,95.24
2024-01-25T06:14:39.069Z,96.06
2024-01-25T06:17:06.683Z,95.32
2024-01-25T06:19:35.483Z,95.91
2024-01-25T06:22:04.856Z,95.74
2024-01-25T06:24:32.566Z,96.05
2024-01-25T06:27:00.161Z,95.82
2024-01-25T06:29:27.821Z,95.34
2024-01-25T06:31:55.368Z,95.82
2024-01-25T06:34:23.119Z,96.01
2024-01-25T06:36:51.042Z,96.24
2024-01-25T06:39:19.946Z,95.72
2024-01-25T06:41:47.758Z,95.99
2024-01-25T06:44:15.403Z,95.44
2024-01-25T06:46:42.938Z,96.00
2024-01-25T06:49:10.730Z,96.12
2024-01-25T06:51:38.387Z,96.16
2024-01-25T06:54:06.083Z,95.89
2024-01-25T06:56:35.944Z,96.19
2024-01-25T06:59:03.499Z,95.91
2024-01-25T07:01:31.896Z,95.97
2024-01-25T07:04:00.773Z,96.27
2024-01-25T07:06:29.735Z,95.67
2024-01-25T07:08:57.573Z,95.75
2024-01-25T07:11:25.886Z,95.37
2024-01-25T07:13:54.812Z,95.49
2024-01-25T07:16:23.056Z,95.12
2024-01-25T07:18:50.788Z,95.56
2024-01-25T07:21:19.464Z,95.40
2024-01-25T07:23:46.983Z,95.63
2024-01-25T07:26:18.875Z,96.27
2024-01-25T07:28:47.256Z,95.72
2024-01-25T07:31:16.312Z,95.79
2024-01-25T07:33:44.099Z,96.32
2024-01-25T07:36:11.813Z,95.55
2024-01-25T07:38:39.321Z,96.10
2024-01-25T07:41:06.939Z,96.36
2024-01-25T07:43:34.552Z,95.32
2024-01-25T07:46:02.212Z,96.86
2024-01-25T07:48:32.177Z,95.82
2024-01-25T07:50:59.875Z,96.35
2024-01-25T07:53:27.574Z,97.04
2024-01-25T07:55:55.575Z,96.63
2024-01-25T07:58:23.397Z,97.06
2024-01-25T08:00:52.331Z,95.73
2024-01-25T08:03:20.026Z,96.82
2024-01-25T08:05:51.591Z,96.01
2024-01-25T08:08:19.504Z,96.88
2024-01-25T08:10:48.091Z,95.73
2024-01-25T08:13:15.801Z,95.82
2024-01-25T08:15:43.416Z,95.59
2024-01-25T08:31:42.310Z,97.23
2024-01-25T08:34:10.103Z,96.02
2024-01-25T08:36:37.895Z,97.05
2024-01-25T08:39:06.533Z,96.27
2024-01-25T08:41:34.067Z,96.25
2024-01-25T08:44:01.618Z,96.37
2024-01-25T08:46:29.697Z,96.99
2024-01-25T08:48:58.925Z,96.47
2024-01-25T08:51:26.670Z,96.32
2024-01-25T08:53:54.216Z,96.26
2024-01-25T08:56:21.767Z,96.53
2024-01-25T08:58:50.771Z,97.60
2024-01-25T09:01:18.442Z,96.69
2024-01-25T09:03:46.132Z,96.88
2024-01-25T09:06:16.577Z,97.09
2024-01-25T09:08:44.269Z,96.33
2024-01-25T09:11:11.854Z,96.74
2024-01-25T09:13:45.796Z,95.82
2024-01-25T09:16:14.627Z,97.44
2024-01-25T09:18:42.695Z,96.67
2024-01-25T09:21:10.501Z,96.59
2024-01-25T09:23:39.394Z,96.48
2024-01-25T09:26:07.007Z,97.32
2024-01-25T09:28:34.744Z,95.96
2024-01-25T09:31:03.852Z,97.17
2024-01-25T09:33:32.742Z,96.54
2024-01-25T09:36:01.012Z,97.32
2024-01-25T09:38:28.713Z,96.63
2024-01-25T09:40:57.949Z,96.42
2024-01-25T09:43:25.678Z,95.88
2024-01-25T09:45:56.093Z,96.29
2024-01-25T09:48:24.337Z,95.26
2024-01-25T09:50:52.045Z,96.06
2024-01-25T09:53:23.960Z,96.26
2024-01-25T09:56:05.738Z,96.37
2024-01-25T09:58:39.438Z,95.39
2024-01-25T10:01:11.117Z,95.43
2024-01-25T10:03:41.412Z,94.72
2024-01-25T10:06:09.743Z,95.22
2024-01-25T10:08:38.060Z,95.84
2024-01-25T10:11:07.508Z,94.77
2024-01-25T10:13:35.279Z,95.61
2024-01-25T10:16:03.011Z,94.62
2024-01-25T10:18:31.454Z,95.10
2024-01-25T10:21:01.748Z,94.44
2024-01-25T10:23:30.582Z,95.04
2024-01-25T10:25:58.796Z,93.40
2024-01-25T10:28:30.041Z,94.46
2024-01-25T10:30:59.180Z,94.73
2024-01-25T10:33:29.241Z,94.30
2024-01-25T10:36:02.889Z,93.45
2024-01-25T10:38:32.743Z,93.41
2024-01-25T10:41:02.521Z,92.91
2024-01-25T10:43:32.593Z,92.91
2024-01-25T10:46:04.655Z,92.29
2024-01-25T10:48:33.298Z,94.24
2024-01-25T10:51:04.287Z,93.68
2024-01-25T10:53:35.563Z,94.34
2024-01-25T10:56:04.350Z,94.19
2024-01-25T10:58:38.374Z,93.31
2024-01-25T11:01:14.959Z,92.46
2024-01-25T11:03:44.263Z,92.37
2024-01-25T11:06:13.694Z,92.55
2024-01-25T11:08:42.154Z,91.73
2024-01-25T11:11:11.482Z,93.42
2024-01-25T11:13:43.189Z,91.97
2024-01-25T11:16:17.633Z,92.53
2024-01-25T11:21:31.340Z,90.38
2024-01-25T11:24:03.807Z,92.70
2024-01-25T11:26:31.823Z,92.28
2024-01-25T11:29:01.226Z,92.00
2024-01-25T11:31:29.903Z,91.60
2024-01-25T11:34:00.071Z,92.25
2024-01-25T11:36:27.988Z,90.58
2024-01-25T11:38:55.581Z,90.84
2024-01-25T11:41:23.199Z,91.84
2024-01-25T11:43:51.122Z,92.13
2024-01-25T11:46:20.616Z,90.61
2024-01-25T11:48:48.375Z,91.77
2024-01-25T11:51:16.336Z,91.96
2024-01-25T11:53:43.910Z,90.08
2024-01-25T11:56:17.841Z,91.82
2024-01-25T11:58:47.658Z,91.43
2024-01-25T12:01:16.493Z,90.14
2024-01-25T12:03:45.532Z,90.41
2024-01-25T12:06:14.721Z,89.76
2024-01-25T12:08:42.671Z,91.04
2024-01-25T12:11:11.687Z,89.51
2024-01-25T12:13:41.723Z,90.48
2024-01-25T12:16:11.027Z,91.50
2024-01-25T12:18:39.579Z,91.44
2024-01-25T12:21:08.688Z,90.78
2024-01-25T12:23:38.688Z,92.13
2024-01-25T12:26:08.075Z,91.99
2024-01-25T12:28:36.293Z,92.44
2024-01-25T12:31:05.746Z,92.34
2024-01-25T12:33:34.628Z,91.81
2024-01-25T12:36:05.903Z,92.57
2024-01-25T12:38:36.410Z,92.07
2024-01-25T12:41:04.838Z,92.66
2024-01-25T12:43:33.669Z,92.03
2024-01-25T12:46:09.421Z,90.77
2024-01-25T12:48:48.025Z,91.19
2024-01-25T12:51:16.384Z,90.20
2024-01-25T12:53:45.706Z,91.25
2024-01-25T12:56:13.388Z,90.32
2024-01-25T12:58:41.106Z,89.42
2024-01-25T13:01:08.942Z,90.36
2024-01-25T13:03:36.659Z,89.89
2024-01-25T13:06:06.467Z,89.12
2024-01-25T13:08:34.498Z,90.40
2024-01-25T13:11:03.368Z,88.75
2024-01-25T13:13:30.975Z,89.78
2024-01-25T13:16:00.429Z,89.40
2024-01-25T13:18:29.727Z,89.27
2024-01-25T13:20:57.356Z,89.37
2024-01-25T13:23:24.890Z,88.99
2024-01-25T13:25:52.434Z,89.46
2024-01-25T13:28:22.822Z,88.72
2024-01-25T13:30:53.211Z,88.44
2024-01-25T13:33:20.966Z,88.37
2024-01-25T13:35:48.620Z,88.62
2024-01-25T13:38:17.501Z,89.46
2024-01-25T13:40:45.321Z,87.62
2024-01-25T13:43:13.433Z,88.11
2024-01-25T13:45:42.308Z,88.89
2024-01-25T13:48:09.927Z,88.37
2024-01-25T13:50:37.461Z,87.84
2024-01-25T13:53:05.326Z,87.86
2024-01-25T13:55:33.043Z,86.80
2024-01-25T13:58:01.504Z,87.70
2024-01-25T14:00:29.973Z,88.13
2024-01-25T14:02:58.981Z,86.75
2024-01-25T14:05:26.811Z,88.85
2024-01-25T14:07:54.881Z,86.80
2024-01-25T14:10:22.597Z,88.78
2024-01-25T14:12:50.623Z,88.42
2024-01-25T14:15:18.263Z,87.62
2024-01-25T14:17:45.957Z,88.35
2024-01-25T14:20:15.092Z,88.29
2024-01-25T14:22:42.719Z,87.83
2024-01-25T14:25:10.658Z,88.98
2024-01-25T14:27:38.389Z,87.25
2024-01-25T14:30:08.072Z,88.10
2024-01-25T14:32:35.838Z,87.98
2024-01-25T14:35:05.553Z,88.42
2024-01-25T14:37:34.373Z,89.09
2024-01-25T14:40:14.981Z,90.34
2024-01-25T14:42:49.563Z,91.31
2024-01-25T14:45:17.453Z,90.89
2024-01-25T14:47:45.100Z,91.75
2024-01-25T14:50:12.782Z,93.12
2024-01-25T14:52:41.668Z,92.25
2024-01-25T14:55:10.219Z,93.00
2024-01-25T14:57:38.090Z,92.43
2024-01-25T15:00:07.340Z,93.42
2024-01-25T15:02:35.295Z,92.98
2024-01-25T15:05:02.899Z,92.58
2024-01-25T15:07:30.591Z,93.32
2024-01-25T15:10:02.142Z,94.31
2024-01-25T15:12:30.220Z,94.30
2024-01-25T15:14:57.791Z,94.25
2024-01-25T15:17:25.340Z,94.45
2024-01-25T15:19:52.982Z,93.53
2024-01-25T15:22:21.664Z,94.24
2024-01-25T15:24:49.240Z,92.61
2024-01-25T15:27:18.224Z,93.38
2024-01-25T15:29:45.761Z,95.14
2024-01-25T15:32:13.291Z,93.66
2024-01-25T15:34:41.816Z,94.82
2024-01-25T15:37:09.495Z,93.91
2024-01-25T15:39:37.081Z,93.93
2024-01-25T15:42:04.921Z,95.07
2024-01-25T15:44:33.848Z,93.39
2024-01-25T15:47:01.660Z,91.77
2024-01-25T15:49:29.219Z,92.76
2024-01-25T15:51:56.799Z,92.38
2024-01-25T15:54:24.414Z,92.69
2024-01-25T15:56:52.794Z,93.17
2024-01-25T15:59:20.376Z,92.69
2024-01-25T16:01:49.255Z,92.62
2024-01-25T16:04:16.904Z,92.14
2024-01-25T16:06:44.497Z,92.62
2024-01-25T16:09:12.254Z,91.09
2024-01-25T16:11:40.085Z,92.70
2024-01-25T16:14:07.655Z,93.24
2024-01-25T16:16:35.217Z,93.16
2024-01-25T16:19:05.513Z,92.14
2024-01-25T16:21:33.714Z,92.11
2024-01-25T16:24:01.420Z,92.62
2024-01-25T16:26:29.568Z,92.34
2024-01-25T16:28:57.146Z,91.33
2024-01-25T16:31:24.721Z,92.36
2024-01-25T16:33:52.468Z,92.19
2024-01-25T16:36:21.414Z,91.53
2024-01-25T16:38:48.980Z,92.65
2024-01-25T16:41:16.539Z,92.87
2024-01-25T16:43:44.206Z,92.75
2024-01-25T16:46:11.841Z,93.03
2024-01-25T16:48:39.554Z,92.28
2024-01-25T16:51:07.329Z,92.13
2024-01-25T16:53:36.353Z,92.34
2024-01-25T16:56:04.117Z,92.11
2024-01-25T16:58:31.664Z,92.72
2024-01-25T17:00:59.840Z,93.39
2024-01-25T17:03:27.598Z,93.11
2024-01-25T17:05:55.227Z,92.54
2024-01-25T17:08:22.953Z,92.69
2024-01-25T17:10:52.208Z,94.15
2024-01-25T17:13:20.249Z,94.15
2024-01-25T17:15:47.912Z,92.95
2024-01-25T17:18:15.619Z,93.96
2024-01-25T17:20:43.262Z,94.24
2024-01-25T17:23:10.788Z,93.64
2024-01-25T17:25:38.328Z,95.35
2024-01-25T17:28:07.532Z,94.07
2024-01-25T17:30:35.679Z,94.19
2024-01-25T17:33:03.428Z,95.29
2024-01-25T17:35:31.012Z,95.26
2024-01-25T17:37:58.660Z,94.34
2024-01-25T17:40:26.175Z,94.56
2024-01-25T17:42:53.859Z,94.06
2024-01-25T17:45:22.831Z,93.28
2024-01-25T17:47:51.963Z,94.47
2024-01-25T17:50:19.754Z,93.59
2024-01-25T17:52:47.309Z,94.36
2024-01-25T17:55:14.844Z,96.09
2024-01-25T17:57:43.964Z,95.21
2024-01-25T18:00:12.696Z,96.02
2024-01-25T18:02:41.636Z,95.94
2024-01-25T18:05:09.984Z,97.29
2024-01-25T18:07:38.036Z,97.66
2024-01-25T18:10:06.376Z,98.12
2024-01-25T18:12:33.972Z,99.09
2024-01-25T18:15:01.552Z,98.73
2024-01-25T18:17:29.164Z,100.00
2024-01-25T18:19:58.193Z,100.00
2024-01-25T18:22:25.793Z,100.00
2024-01-25T18:24:55.319Z,100.00
2024-01-25T18:27:22.951Z,100.00
2024-01-25T18:29:50.531Z,100.00
2024-01-25T18:32:18.058Z,100.00
2024-01-25T18:34:45.867Z,100.00
2024-01-25T18:37:14.816Z,100.00
2024-01-25T18:39:42.361Z,100.00
2024-01-25T18:42:09.935Z,100.00
2024-01-25T18:44:41.294Z,100.00
2024-01-25T18:47:11.238Z,100.00
2024-01-25T18:49:38.985Z,100.00
2024-01-25T18:52:07.151Z,100.00
2024-01-25T18:54:36.793Z,100.00
2024-01-25T18:57:04.909Z,100.00
2024-01-25T18:59:32.960Z,100.00
2024-01-25T19:02:01.264Z,100.00
2024-01-25T19:04:29.765Z,100.00
2024-01-25T19:06:58.744Z,100.00
2024-01-25T19:09:29.316Z,100.00
2024-01-25T19:11:58.347Z,100.00
2024-01-25T19:14:26.045Z,100.00
2024-01-25T19:16:53.759Z,100.00
2024-01-25T19:19:21.879Z,100.00
2024-01-25T19:21:50.281Z,100.00
2024-01-25T19:24:20.369Z,100.00
2024-01-25T19:26:48.163Z,100.00
2024-01-25T19:29:17.143Z,100.00
2024-01-25T19:31:45.765Z,100.00
2024-01-25T19:34:13.389Z,100.00
2024-01-25T19:36:41.305Z,100.00
2024-01-25T19:39:08.877Z,100.00
2024-01-25T19:41:36.511Z,100.00
2024-01-25T19:44:04.082Z,100.00
2024-01-25T19:46:32.973Z,100.00
2024-01-25T19:49:00.857Z,100.00
2024-01-25T19:51:28.734Z,100.00
2024-01-25T19:53:57.039Z,100.00
2024-01-25T19:56:24.574Z,100.00
2024-01-25T19:58:54.428Z,100.00
2024-01-25T20:01:22.678Z,100.00
2024-01-25T20:03:52.489Z,100.00
2024-01-25T20:06:21.878Z,100.00
2024-01-25T20:08:50.654Z,100.00
2024-01-25T20:11:18.183Z,100.00
2024-01-25T20:13:45.772Z,100.00
2024-01-25T20:16:13.562Z,100.00
2024-01-25T20:18:41.774Z,100.00
2024-01-25T20:21:10.758Z,100.00
2024-01-25T20:23:38.326Z,100.00
2024-01-25T20:26:05.867Z,100.00
2024-01-25T20:28:33.412Z,100.00
2024-01-25T20:31:01.019Z,100.00
2024-01-25T20:33:28.760Z,100.00
2024-01-25T20:35:56.781Z,100.00
2024-01-25T20:38:25.985Z,100.00
2024-01-25T20:40:53.519Z,100.00
2024-01-25T20:43:21.116Z,100.00
2024-01-25T20:45:48.719Z,100.00
2024-01-25T20:48:16.567Z,100.00
2024-01-25T20:50:44.328Z,100.00
2024-01-25T20:53:11.919Z,100.00
2024-01-25T20:55:40.943Z,100.00
2024-01-25T20:58:08.470Z,100.00
2024-01-25T21:00:36.247Z,100.00
2024-01-25T21:03:04.470Z,100.00
2024-01-25T21:05:32.646Z,100.00
2024-01-25T21:08:00.899Z,100.00
2024-01-25T21:10:29.234Z,100.00
2024-01-25T21:12:58.829Z,100.00
2024-01-25T21:15:27.040Z,100.00
2024-01-25T21:17:54.746Z,100.00
2024-01-25T21:20:22.369Z,100.00
2024-01-25T21:22:49.986Z,100.00
2024-01-25T21:25:17.545Z,100.00
2024-01-25T21:27:45.210Z,100.00
2024-01-25T21:30:15.024Z,100.00
2024-01-25T21:32:42.896Z,100.00
2024-01-25T21:35:10.980Z,100.00
2024-01-25T21:37:38.633Z,100.00
2024-01-25T21:40:07.625Z,100.00
2024-01-25T21:42:37.948Z,100.00
2024-01-25T21:45:07.542Z,100.00
2024-01-25T21:47:37.254Z,100.00
2024-01-25T21:50:08.516Z,100.00
2024-01-25T21:52:36.418Z,100.00
2024-01-25T21:57:35.324Z,100.00
2024-01-25T22:00:03.086Z,100.00
2024-01-25T22:02:30.926Z,100.00
2024-01-25T22:05:00.064Z,100.00
2024-01-25T22:07:27.600Z,100.00
2024-01-25T22:09:55.265Z,100.00
2024-01-25T22:12:22.878Z,100.00
2024-01-25T22:14:50.392Z,100.00
2024-01-25T22:17:17.934Z,100.00
2024-01-25T22:19:45.876Z,100.00
2024-01-25T22:22:15.401Z,100.00
2024-01-25T22:24:45.503Z,100.00
2024-01-25T22:27:13.097Z,100.00
2024-01-25T22:29:40.654Z,100.00
2024-01-25T22:32:08.189Z,100.00
2024-01-25T22:34:35.882Z,100.00
2024-01-25T22:37:03.630Z,100.00
2024-01-25T22:39:32.652Z,100.00
2024-01-25T22:42:00.204Z,100.00
2024-01-25T22:44:27.774Z,100.00
2024-01-25T22:47:02.611Z,100.00
2024-01-25T22:49:33.108Z,100.00
2024-01-25T22:52:01.138Z,100.00
2024-01-25T22:54:29.099Z,100.00
2024-01-25T22:56:58.070Z,100.00
2024-01-25T22:59:25.609Z,100.00
2024-01-25T23:01:53.296Z,100.00
2024-01-25T23:04:21.348Z,100.00
2024-01-25T23:06:50.449Z,100.00
2024-01-25T23:09:19.933Z,100.00
2024-01-25T23:11:47.901Z,100.00
2024-01-25T23:14:16.887Z,100.00
2024-01-25T23:16:45.034Z,100.00
2024-01-25T23:19:13.045Z,100.00
2024-01-25T23:21:40.898Z,100.00
2024-01-25T23:24:08.746Z,100.00
2024-01-25T23:26:36.318Z,100.00
2024-01-25T23:29:03.874Z,100.00
2024-01-25T23:31:32.742Z,100.00
2024-01-25T23:34:00.481Z,100.00
2024-01-25T23:36:28.444Z,100.00
2024-01-25T23:38:56.044Z,100.00
2024-01-25T23:41:25.230Z,100.00
2024-01-25T23:43:53.409Z,100.00
2024-01-25T23:46:21.108Z,100.00
2024-01-25T23:48:50.416Z,100.00
2024-01-25T23:51:18.108Z,100.00
2024-01-25T23:53:45.945Z,100.00
2024-01-25T23:56:13.672Z,100.00
2024-01-25T23:58:41.848Z,100.00
